createdAt,value
2022-12-04T00:00:18.146Z,24.31
2022-12-04T00:00:48.261Z,24.28
2022-12-04T00:01:18.396Z,24.28
2022-12-04T00:01:48.488Z,24.30
2022-12-04T00:02:18.607Z,24.27
2022-12-04T00:02:48.754Z,24.28
2022-12-04T00:03:18.901Z,24.28
2022-12-04T00:03:48.888Z,24.28
2022-12-04T00:04:19.087Z,24.27
2022-12-04T00:04:49.154Z,24.24
2022-12-04T00:05:19.132Z,24.24
2022-12-04T00:05:49.135Z,24.24
2022-12-04T00:06:19.241Z,24.24
2022-12-04T00:06:52.720Z,24.24
2022-12-04T00:07:19.360Z,24.24
2022-12-04T00:07:49.562Z,24.22
2022-12-04T00:08:19.588Z,24.22
2022-12-04T00:08:49.545Z,24.21
2022-12-04T00:09:19.657Z,24.21
2022-12-04T00:09:49.770Z,24.20
2022-12-04T00:10:20.041Z,24.20
2022-12-04T00:10:49.887Z,24.22
2022-12-04T00:11:20.002Z,24.20
2022-12-04T00:11:49.991Z,24.20
2022-12-04T00:12:20.101Z,24.20
2022-12-04T00:12:50.225Z,24.20
2022-12-04T00:13:20.212Z,24.20
2022-12-04T00:13:50.326Z,24.21
2022-12-04T00:14:20.435Z,24.21
2022-12-04T00:15:23.862Z,24.18
2022-12-04T00:15:25.682Z,24.20
2022-12-04T00:15:50.595Z,24.20
2022-12-04T00:16:20.644Z,24.17
2022-12-04T00:16:50.716Z,24.18
2022-12-04T00:17:20.628Z,24.20
2022-12-04T00:17:50.748Z,24.20
2022-12-04T00:18:20.861Z,24.17
2022-12-04T00:18:50.968Z,24.20
2022-12-04T00:19:21.125Z,24.18
2022-12-04T00:19:51.242Z,24.18
2022-12-04T00:20:21.221Z,24.21
2022-12-04T00:20:51.333Z,24.20
2022-12-04T00:21:21.446Z,24.18
2022-12-04T00:21:51.556Z,24.20
2022-12-04T00:22:21.664Z,24.20
2022-12-04T00:22:51.777Z,24.18
2022-12-04T00:23:21.890Z,24.18
2022-12-04T00:23:51.998Z,24.17
2022-12-04T00:24:22.119Z,24.18
2022-12-04T00:24:52.222Z,24.20
2022-12-04T00:25:22.340Z,24.20
2022-12-04T00:25:52.453Z,24.18
2022-12-04T00:26:22.564Z,24.20
2022-12-04T00:26:52.685Z,24.20
2022-12-04T00:27:22.691Z,24.21
2022-12-04T00:27:52.805Z,24.21
2022-12-04T00:28:22.919Z,24.20
2022-12-04T00:28:53.029Z,24.18
2022-12-04T00:29:23.140Z,24.21
2022-12-04T00:29:53.554Z,24.20
2022-12-04T00:30:23.335Z,24.20
2022-12-04T00:30:53.450Z,24.21
2022-12-04T00:31:23.618Z,24.18
2022-12-04T00:31:53.663Z,24.21
2022-12-04T00:32:23.642Z,24.20
2022-12-04T00:32:53.738Z,24.22
2022-12-04T00:33:23.853Z,24.20
2022-12-04T00:33:53.964Z,24.20
2022-12-04T00:34:24.077Z,24.20
2022-12-04T00:34:54.181Z,24.20
2022-12-04T00:35:24.293Z,24.21
2022-12-04T00:35:54.405Z,24.21
2022-12-04T00:36:24.515Z,24.21
2022-12-04T00:36:54.631Z,24.20
2022-12-04T00:37:24.737Z,24.21
2022-12-04T00:37:54.851Z,24.20
2022-12-04T00:38:24.964Z,24.18
2022-12-04T00:38:55.075Z,24.22
2022-12-04T00:39:25.205Z,24.18
2022-12-04T00:39:55.363Z,24.20
2022-12-04T00:40:25.239Z,24.18
2022-12-04T00:40:55.351Z,24.21
2022-12-04T00:41:25.480Z,24.20
2022-12-04T00:41:55.585Z,24.17
2022-12-04T00:42:25.687Z,24.18
2022-12-04T00:42:55.808Z,24.18
2022-12-04T00:43:25.924Z,24.20
2022-12-04T00:43:56.021Z,24.18
2022-12-04T00:44:26.102Z,24.18
2022-12-04T00:44:56.173Z,24.20
2022-12-04T00:45:26.304Z,24.18
2022-12-04T00:45:56.460Z,24.21
2022-12-04T00:46:26.486Z,24.20
2022-12-04T00:46:56.459Z,24.21
2022-12-04T00:47:26.546Z,24.21
2022-12-04T00:47:56.597Z,24.18
2022-12-04T00:48:26.669Z,24.21
2022-12-04T00:48:56.745Z,24.22
2022-12-04T00:49:26.821Z,24.18
2022-12-04T00:49:57.370Z,24.21
2022-12-04T00:50:26.998Z,24.21
2022-12-04T00:50:57.071Z,24.22
2022-12-04T00:51:27.149Z,24.24
2022-12-04T00:51:57.221Z,24.24
2022-12-04T00:52:27.288Z,24.22
2022-12-04T00:52:57.367Z,24.24
2022-12-04T00:53:27.440Z,24.22
2022-12-04T00:53:57.520Z,24.25
2022-12-04T00:54:27.642Z,24.25
2022-12-04T00:54:57.638Z,24.24
2022-12-04T00:55:27.623Z,24.27
2022-12-04T00:55:57.740Z,24.27
2022-12-04T00:56:27.728Z,24.25
2022-12-04T00:56:57.842Z,24.27
2022-12-04T00:57:27.954Z,24.27
2022-12-04T00:57:59.979Z,24.28
2022-12-04T00:58:28.130Z,24.27
2022-12-04T00:58:58.239Z,24.28
2022-12-04T00:59:28.231Z,24.28
2022-12-04T00:59:58.349Z,24.28
2022-12-04T01:00:28.463Z,24.24
2022-12-04T01:00:58.644Z,24.28
2022-12-04T01:01:28.740Z,24.28
2022-12-04T01:01:58.635Z,24.28
2022-12-04T01:02:28.769Z,24.27
2022-12-04T01:02:58.986Z,24.28
2022-12-04T01:03:29.051Z,24.28
2022-12-04T01:03:59.041Z,24.31
2022-12-04T01:04:29.152Z,24.28
2022-12-04T01:04:59.263Z,24.27
2022-12-04T01:05:29.376Z,24.25
2022-12-04T01:05:59.505Z,24.25
2022-12-04T01:06:29.488Z,24.24
2022-12-04T01:07:04.759Z,24.27
2022-12-04T01:07:29.752Z,24.22
2022-12-04T01:07:59.879Z,24.24
2022-12-04T01:08:29.829Z,24.25
2022-12-04T01:08:59.945Z,24.24
2022-12-04T01:09:30.052Z,24.22
2022-12-04T01:10:00.177Z,24.22
2022-12-04T01:10:30.277Z,24.22
2022-12-04T01:11:00.395Z,24.20
2022-12-04T01:11:30.382Z,24.21
2022-12-04T01:12:00.495Z,24.21
2022-12-04T01:12:30.600Z,24.21
2022-12-04T01:13:00.722Z,24.18
2022-12-04T01:13:30.833Z,24.18
2022-12-04T01:14:00.948Z,24.20
2022-12-04T01:14:31.057Z,24.20
2022-12-04T01:15:01.169Z,24.18
2022-12-04T01:15:31.290Z,24.17
2022-12-04T01:16:01.521Z,24.17
2022-12-04T01:16:31.485Z,24.20
2022-12-04T01:17:01.659Z,24.20
2022-12-04T01:17:31.553Z,24.18
2022-12-04T01:18:01.647Z,24.18
2022-12-04T01:18:31.750Z,24.17
2022-12-04T01:19:01.863Z,24.18
2022-12-04T01:19:31.976Z,24.15
2022-12-04T01:20:02.099Z,24.17
2022-12-04T01:20:32.199Z,24.17
2022-12-04T01:21:02.344Z,24.18
2022-12-04T01:21:32.326Z,24.18
2022-12-04T01:22:02.445Z,24.17
2022-12-04T01:22:32.437Z,24.15
2022-12-04T01:23:02.551Z,24.18
2022-12-04T01:23:32.663Z,24.17
2022-12-04T01:24:02.778Z,24.18
2022-12-04T01:24:32.891Z,24.15
2022-12-04T01:25:02.999Z,24.18
2022-12-04T01:25:33.115Z,24.17
2022-12-04T01:26:03.247Z,24.17
2022-12-04T01:26:33.248Z,24.18
2022-12-04T01:27:03.232Z,24.18
2022-12-04T01:27:33.337Z,24.17
2022-12-04T01:28:03.454Z,24.18
2022-12-04T01:28:33.564Z,24.18
2022-12-04T01:29:03.681Z,24.18
2022-12-04T01:29:33.792Z,24.20
2022-12-04T01:30:03.902Z,24.18
2022-12-04T01:30:34.012Z,24.20
2022-12-04T01:31:04.146Z,24.20
2022-12-04T01:31:34.198Z,24.18
2022-12-04T01:32:04.294Z,24.18
2022-12-04T01:32:34.340Z,24.21
2022-12-04T01:33:04.424Z,24.21
2022-12-04T01:33:34.534Z,24.20
2022-12-04T01:34:04.643Z,24.18
2022-12-04T01:34:34.759Z,24.20
2022-12-04T01:35:04.870Z,24.20
2022-12-04T01:35:34.983Z,24.18
2022-12-04T01:36:05.156Z,24.18
2022-12-04T01:36:35.140Z,24.18
2022-12-04T01:37:05.252Z,24.20
2022-12-04T01:37:35.368Z,24.18
2022-12-04T01:38:05.479Z,24.18
2022-12-04T01:38:35.501Z,24.20
2022-12-04T01:39:05.616Z,24.21
2022-12-04T01:39:35.729Z,24.18
2022-12-04T01:40:05.838Z,24.18
2022-12-04T01:40:35.954Z,24.21
2022-12-04T01:41:06.066Z,24.18
2022-12-04T01:41:36.188Z,24.20
2022-12-04T01:42:06.305Z,24.20
2022-12-04T01:42:36.417Z,24.20
2022-12-04T01:43:06.527Z,24.18
2022-12-04T01:43:36.635Z,24.18
2022-12-04T01:44:06.740Z,24.18
2022-12-04T01:44:36.813Z,24.17
2022-12-04T01:45:06.892Z,24.21
2022-12-04T01:45:37.042Z,24.17
2022-12-04T01:46:07.155Z,24.20
2022-12-04T01:46:37.009Z,24.18
2022-12-04T01:47:07.085Z,24.20
2022-12-04T01:47:37.191Z,24.20
2022-12-04T01:48:07.235Z,24.17
2022-12-04T01:48:37.312Z,24.21
2022-12-04T01:49:07.389Z,24.18
2022-12-04T01:49:37.467Z,24.17
2022-12-04T01:50:07.530Z,24.20
2022-12-04T01:50:37.599Z,24.18
2022-12-04T01:51:07.698Z,24.18
2022-12-04T01:51:37.771Z,24.18
2022-12-04T01:52:07.855Z,24.17
2022-12-04T01:52:37.923Z,24.20
2022-12-04T01:53:07.996Z,24.18
2022-12-04T01:53:38.071Z,24.15
2022-12-04T01:54:08.169Z,24.18
2022-12-04T01:54:38.295Z,24.15
2022-12-04T01:55:08.282Z,24.17
2022-12-04T01:55:38.391Z,24.17
2022-12-04T01:56:08.537Z,24.17
2022-12-04T01:56:38.527Z,24.17
2022-12-04T01:57:08.640Z,24.18
2022-12-04T01:57:38.758Z,24.17
2022-12-04T01:58:08.865Z,24.20
2022-12-04T01:58:38.979Z,24.22
2022-12-04T01:59:09.110Z,24.20
2022-12-04T01:59:39.100Z,24.21
2022-12-04T02:00:09.206Z,24.22
2022-12-04T02:00:39.434Z,24.21
2022-12-04T02:01:09.697Z,24.24
2022-12-04T02:01:39.420Z,24.21
2022-12-04T02:02:09.767Z,24.22
2022-12-04T02:02:39.675Z,24.24
2022-12-04T02:03:09.704Z,24.22
2022-12-04T02:03:39.679Z,24.24
2022-12-04T02:04:09.811Z,24.27
2022-12-04T02:04:39.801Z,24.24
2022-12-04T02:05:09.915Z,24.25
2022-12-04T02:05:40.027Z,24.27
2022-12-04T02:06:10.152Z,24.25
2022-12-04T02:06:40.136Z,24.25
2022-12-04T02:07:10.130Z,24.27
2022-12-04T02:07:40.307Z,24.22
2022-12-04T02:08:10.348Z,24.27
2022-12-04T02:08:40.317Z,24.25
2022-12-04T02:09:10.431Z,24.27
2022-12-04T02:09:40.542Z,24.27
2022-12-04T02:10:10.652Z,24.27
2022-12-04T02:10:40.765Z,24.25
2022-12-04T02:11:10.893Z,24.24
2022-12-04T02:11:40.998Z,24.27
2022-12-04T02:12:11.113Z,24.24
2022-12-04T02:12:41.227Z,24.25
2022-12-04T02:13:11.345Z,24.25
2022-12-04T02:13:41.337Z,24.25
2022-12-04T02:14:11.445Z,24.25
2022-12-04T02:14:41.563Z,24.22
2022-12-04T02:15:11.673Z,24.22
2022-12-04T02:15:41.788Z,24.22
2022-12-04T02:16:12.003Z,24.21
2022-12-04T02:16:42.120Z,24.21
2022-12-04T02:17:12.115Z,24.22
2022-12-04T02:17:42.226Z,24.20
2022-12-04T02:18:12.365Z,24.21
2022-12-04T02:18:42.446Z,24.21
2022-12-04T02:19:12.563Z,24.22
2022-12-04T02:19:42.675Z,24.18
2022-12-04T02:20:12.815Z,24.20
2022-12-04T02:20:42.945Z,24.18
2022-12-04T02:21:12.923Z,24.18
2022-12-04T02:21:43.034Z,24.18
2022-12-04T02:22:13.143Z,24.17
2022-12-04T02:22:43.262Z,24.15
2022-12-04T02:23:13.373Z,24.17
2022-12-04T02:23:43.489Z,24.14
2022-12-04T02:24:13.607Z,24.15
2022-12-04T02:24:48.453Z,24.14
2022-12-04T02:25:13.727Z,24.15
2022-12-04T02:25:43.839Z,24.12
2022-12-04T02:26:13.950Z,24.15
2022-12-04T02:26:44.070Z,24.12
2022-12-04T02:27:14.177Z,24.14
2022-12-04T02:27:44.290Z,24.12
2022-12-04T02:28:14.400Z,24.11
2022-12-04T02:28:44.518Z,24.12
2022-12-04T02:29:14.642Z,24.12
2022-12-04T02:29:44.758Z,24.12
2022-12-04T02:30:14.870Z,24.14
2022-12-04T02:30:45.026Z,24.14
2022-12-04T02:31:15.104Z,24.14
2022-12-04T02:31:45.109Z,24.12
2022-12-04T02:32:15.224Z,24.12
2022-12-04T02:32:45.343Z,24.11
2022-12-04T02:33:15.479Z,24.11
2022-12-04T02:33:45.568Z,24.14
2022-12-04T02:34:15.692Z,24.14
2022-12-04T02:34:45.803Z,24.12
2022-12-04T02:35:15.920Z,24.11
2022-12-04T02:35:46.032Z,24.14
2022-12-04T02:36:16.147Z,24.14
2022-12-04T02:36:46.260Z,24.12
2022-12-04T02:37:16.370Z,24.15
2022-12-04T02:37:46.485Z,24.14
2022-12-04T02:38:16.604Z,24.11
2022-12-04T02:38:46.716Z,24.15
2022-12-04T02:39:16.829Z,24.14
2022-12-04T02:39:46.945Z,24.12
2022-12-04T02:40:17.064Z,24.12
2022-12-04T02:40:47.179Z,24.14
2022-12-04T02:41:17.297Z,24.15
2022-12-04T02:41:47.287Z,24.14
2022-12-04T02:42:17.400Z,24.14
2022-12-04T02:42:47.514Z,24.12
2022-12-04T02:43:17.628Z,24.15
2022-12-04T02:43:47.735Z,24.14
2022-12-04T02:44:17.814Z,24.14
2022-12-04T02:44:47.888Z,24.15
2022-12-04T02:45:17.959Z,24.17
2022-12-04T02:45:48.101Z,24.12
2022-12-04T02:46:18.149Z,24.12
2022-12-04T02:46:48.142Z,24.14
2022-12-04T02:47:18.214Z,24.17
2022-12-04T02:47:48.285Z,24.14
2022-12-04T02:48:18.387Z,24.11
2022-12-04T02:48:48.431Z,24.15
2022-12-04T02:49:18.519Z,24.14
2022-12-04T02:49:48.576Z,24.14
2022-12-04T02:50:18.654Z,24.14
2022-12-04T02:50:48.727Z,24.15
2022-12-04T02:51:18.816Z,24.15
2022-12-04T02:51:48.891Z,24.14
2022-12-04T02:52:18.966Z,24.14
2022-12-04T02:52:49.044Z,24.12
2022-12-04T02:53:19.119Z,24.14
2022-12-04T02:53:49.193Z,24.14
2022-12-04T02:54:19.188Z,24.15
2022-12-04T02:54:49.302Z,24.14
2022-12-04T02:55:19.413Z,24.14
2022-12-04T02:55:49.528Z,24.11
2022-12-04T02:56:19.674Z,24.14
2022-12-04T02:56:49.663Z,24.12
2022-12-04T02:57:19.777Z,24.14
2022-12-04T02:57:49.910Z,24.15
2022-12-04T02:58:19.893Z,24.14
2022-12-04T02:58:50.003Z,24.12
2022-12-04T02:59:20.114Z,24.14
2022-12-04T02:59:50.233Z,24.15
2022-12-04T03:00:20.349Z,24.14
2022-12-04T03:00:50.502Z,24.14
2022-12-04T03:01:20.580Z,24.14
2022-12-04T03:01:50.651Z,24.14
2022-12-04T03:02:20.736Z,24.12
2022-12-04T03:02:50.838Z,24.12
2022-12-04T03:03:20.831Z,24.14
2022-12-04T03:03:50.960Z,24.14
2022-12-04T03:04:21.048Z,24.17
2022-12-04T03:04:51.168Z,24.15
2022-12-04T03:05:21.276Z,24.17
2022-12-04T03:05:51.398Z,24.17
2022-12-04T03:06:21.533Z,24.18
2022-12-04T03:06:51.520Z,24.17
2022-12-04T03:07:21.639Z,24.18
2022-12-04T03:07:51.830Z,24.20
2022-12-04T03:08:21.806Z,24.21
2022-12-04T03:08:51.919Z,24.21
2022-12-04T03:09:22.030Z,24.18
2022-12-04T03:09:52.027Z,24.21
2022-12-04T03:10:22.131Z,24.20
2022-12-04T03:10:52.250Z,24.22
2022-12-04T03:11:22.379Z,24.22
2022-12-04T03:11:52.364Z,24.25
2022-12-04T03:12:22.479Z,24.24
2022-12-04T03:12:52.595Z,24.25
2022-12-04T03:13:22.706Z,24.27
2022-12-04T03:13:52.817Z,24.27
2022-12-04T03:14:22.929Z,24.30
2022-12-04T03:14:53.066Z,24.28
2022-12-04T03:15:23.050Z,24.28
2022-12-04T03:15:53.160Z,24.27
2022-12-04T03:16:23.422Z,24.28
2022-12-04T03:16:53.334Z,24.30
2022-12-04T03:17:23.319Z,24.28
2022-12-04T03:17:53.428Z,24.31
2022-12-04T03:18:23.543Z,24.27
2022-12-04T03:18:53.680Z,24.31
2022-12-04T03:19:23.764Z,24.30
2022-12-04T03:19:54.240Z,24.28
2022-12-04T03:20:23.960Z,24.27
2022-12-04T03:20:54.067Z,24.27
2022-12-04T03:21:24.175Z,24.30
2022-12-04T03:21:54.293Z,24.28
2022-12-04T03:22:24.401Z,24.27
2022-12-04T03:22:54.512Z,24.27
2022-12-04T03:23:24.622Z,24.27
2022-12-04T03:23:54.737Z,24.27
2022-12-04T03:24:24.849Z,24.28
2022-12-04T03:24:54.980Z,24.27
2022-12-04T03:25:24.963Z,24.27
2022-12-04T03:25:55.080Z,24.25
2022-12-04T03:26:25.191Z,24.25
2022-12-04T03:26:55.308Z,24.25
2022-12-04T03:27:25.409Z,24.25
2022-12-04T03:27:55.521Z,24.22
2022-12-04T03:28:25.631Z,24.22
2022-12-04T03:28:55.743Z,24.22
2022-12-04T03:29:25.854Z,24.24
2022-12-04T03:29:56.290Z,24.24
2022-12-04T03:30:26.092Z,24.22
2022-12-04T03:30:56.218Z,24.21
2022-12-04T03:31:26.202Z,24.22
2022-12-04T03:31:56.185Z,24.21
2022-12-04T03:32:26.297Z,24.18
2022-12-04T03:32:56.407Z,24.20
2022-12-04T03:33:26.524Z,24.21
2022-12-04T03:33:56.663Z,24.20
2022-12-04T03:34:26.742Z,24.18
2022-12-04T03:34:56.886Z,24.18
2022-12-04T03:35:26.888Z,24.17
2022-12-04T03:35:56.983Z,24.17
2022-12-04T03:36:26.971Z,24.15
2022-12-04T03:36:56.978Z,24.14
2022-12-04T03:37:27.111Z,24.15
2022-12-04T03:37:57.100Z,24.15
2022-12-04T03:38:27.210Z,24.17
2022-12-04T03:38:57.322Z,24.15
2022-12-04T03:39:27.435Z,24.12
2022-12-04T03:39:57.891Z,24.12
2022-12-04T03:40:27.659Z,24.14
2022-12-04T03:40:57.788Z,24.14
2022-12-04T03:41:27.777Z,24.14
2022-12-04T03:41:57.886Z,24.12
2022-12-04T03:42:28.000Z,24.14
2022-12-04T03:42:58.107Z,24.14
2022-12-04T03:43:28.221Z,24.12
2022-12-04T03:43:58.321Z,24.12
2022-12-04T03:44:28.415Z,24.11
2022-12-04T03:44:58.494Z,24.11
2022-12-04T03:45:28.603Z,24.11
2022-12-04T03:45:58.767Z,24.11
2022-12-04T03:46:28.829Z,24.11
2022-12-04T03:46:58.784Z,24.11
2022-12-04T03:47:28.871Z,24.12
2022-12-04T03:47:58.934Z,24.12
2022-12-04T03:48:29.013Z,24.14
2022-12-04T03:48:59.082Z,24.12
2022-12-04T03:49:29.189Z,24.14
2022-12-04T03:49:59.521Z,24.12
2022-12-04T03:50:29.319Z,24.12
2022-12-04T03:50:59.386Z,24.10
2022-12-04T03:51:29.466Z,24.11
2022-12-04T03:51:59.532Z,24.08
2022-12-04T03:52:29.619Z,24.11
2022-12-04T03:52:59.673Z,24.12
2022-12-04T03:53:29.753Z,24.11
2022-12-04T03:53:59.832Z,24.12
2022-12-04T03:54:29.949Z,24.10
2022-12-04T03:55:00.092Z,24.12
2022-12-04T03:55:30.111Z,24.10
2022-12-04T03:56:00.083Z,24.11
2022-12-04T03:56:30.193Z,24.11
2022-12-04T03:57:00.310Z,24.10
2022-12-04T03:57:30.424Z,24.11
2022-12-04T03:58:00.533Z,24.12
2022-12-04T03:58:30.647Z,24.11
2022-12-04T03:59:00.757Z,24.11
2022-12-04T03:59:30.872Z,24.11
2022-12-04T04:00:01.291Z,24.12
2022-12-04T04:00:31.071Z,24.10
2022-12-04T04:01:01.135Z,24.10
2022-12-04T04:01:31.141Z,24.11
2022-12-04T04:02:01.167Z,24.12
2022-12-04T04:02:31.197Z,24.11
2022-12-04T04:03:01.213Z,24.11
2022-12-04T04:03:31.261Z,24.10
2022-12-04T04:04:01.374Z,24.10
2022-12-04T04:04:31.489Z,24.11
2022-12-04T04:05:01.659Z,24.08
2022-12-04T04:05:31.610Z,24.10
2022-12-04T04:06:01.724Z,24.10
2022-12-04T04:06:31.838Z,24.14
2022-12-04T04:07:01.951Z,24.11
2022-12-04T04:07:35.554Z,24.14
2022-12-04T04:08:02.171Z,24.10
2022-12-04T04:08:32.271Z,24.11
2022-12-04T04:09:02.251Z,24.11
2022-12-04T04:09:32.365Z,24.11
2022-12-04T04:10:02.491Z,24.12
2022-12-04T04:10:32.486Z,24.12
2022-12-04T04:11:02.596Z,24.10
2022-12-04T04:11:32.705Z,24.10
2022-12-04T04:12:02.827Z,24.12
2022-12-04T04:12:32.982Z,24.10
2022-12-04T04:13:02.940Z,24.14
2022-12-04T04:13:33.106Z,24.12
2022-12-04T04:14:03.057Z,24.10
2022-12-04T04:14:33.195Z,24.12
2022-12-04T04:15:03.310Z,24.12
2022-12-04T04:15:33.356Z,24.11
2022-12-04T04:16:03.509Z,24.12
2022-12-04T04:16:33.417Z,24.11
2022-12-04T04:17:03.528Z,24.14
2022-12-04T04:17:38.455Z,24.11
2022-12-04T04:18:03.647Z,24.11
2022-12-04T04:18:33.764Z,24.14
2022-12-04T04:19:03.873Z,24.12
2022-12-04T04:19:33.995Z,24.14
2022-12-04T04:20:04.146Z,24.17
2022-12-04T04:20:34.107Z,24.17
2022-12-04T04:21:04.219Z,24.18
2022-12-04T04:21:34.330Z,24.18
2022-12-04T04:22:04.441Z,24.15
2022-12-04T04:22:34.554Z,24.18
2022-12-04T04:23:04.667Z,24.15
2022-12-04T04:23:34.781Z,24.18
2022-12-04T04:24:04.890Z,24.20
2022-12-04T04:24:35.006Z,24.20
2022-12-04T04:25:05.137Z,24.21
2022-12-04T04:25:35.127Z,24.20
2022-12-04T04:26:05.115Z,24.21
2022-12-04T04:26:35.226Z,24.20
2022-12-04T04:27:05.339Z,24.22
2022-12-04T04:27:35.447Z,24.21
2022-12-04T04:28:05.559Z,24.20
2022-12-04T04:28:35.722Z,24.20
2022-12-04T04:29:05.677Z,24.21
2022-12-04T04:29:35.790Z,24.22
2022-12-04T04:30:05.898Z,24.20
2022-12-04T04:30:36.010Z,24.22
2022-12-04T04:31:06.166Z,24.22
2022-12-04T04:31:36.287Z,24.22
2022-12-04T04:32:06.183Z,24.21
2022-12-04T04:32:36.296Z,24.22
2022-12-04T04:33:06.408Z,24.21
2022-12-04T04:33:36.517Z,24.20
2022-12-04T04:34:06.627Z,24.21
2022-12-04T04:34:36.744Z,24.20
2022-12-04T04:35:06.906Z,24.17
2022-12-04T04:35:36.867Z,24.17
2022-12-04T04:36:06.862Z,24.18
2022-12-04T04:36:36.969Z,24.17
2022-12-04T04:37:07.084Z,24.17
2022-12-04T04:37:37.201Z,24.17
2022-12-04T04:38:07.309Z,24.17
2022-12-04T04:38:37.425Z,24.17
2022-12-04T04:39:07.531Z,24.17
2022-12-04T04:39:37.646Z,24.15
2022-12-04T04:40:07.759Z,24.17
2022-12-04T04:40:37.879Z,24.15
2022-12-04T04:41:07.870Z,24.15
2022-12-04T04:41:37.987Z,24.14
2022-12-04T04:42:08.094Z,24.14
2022-12-04T04:42:38.210Z,24.12
2022-12-04T04:43:08.318Z,24.12
2022-12-04T04:43:38.438Z,24.15
2022-12-04T04:44:08.523Z,24.12
2022-12-04T04:44:38.597Z,24.12
2022-12-04T04:45:08.696Z,24.11
2022-12-04T04:45:38.773Z,24.12
2022-12-04T04:46:08.918Z,24.12
2022-12-04T04:46:38.923Z,24.11
2022-12-04T04:47:08.907Z,24.12
2022-12-04T04:47:38.984Z,24.10
2022-12-04T04:48:09.055Z,24.11
2022-12-04T04:48:39.131Z,24.10
2022-12-04T04:49:09.209Z,24.12
2022-12-04T04:49:39.280Z,24.10
2022-12-04T04:50:09.397Z,24.08
2022-12-04T04:50:39.472Z,24.11
2022-12-04T04:51:09.551Z,24.10
2022-12-04T04:51:39.627Z,24.11
2022-12-04T04:52:09.696Z,24.11
2022-12-04T04:52:39.773Z,24.10
2022-12-04T04:53:09.842Z,24.10
2022-12-04T04:53:39.925Z,24.10
2022-12-04T04:54:10.025Z,24.11
2022-12-04T04:54:40.133Z,24.11
2022-12-04T04:55:10.246Z,24.08
2022-12-04T04:55:40.364Z,24.10
2022-12-04T04:56:10.352Z,24.10
2022-12-04T04:56:40.464Z,24.11
2022-12-04T04:57:10.580Z,24.11
2022-12-04T04:57:40.689Z,24.10
2022-12-04T04:58:10.797Z,24.10
2022-12-04T04:58:40.909Z,24.10
2022-12-04T04:59:11.021Z,24.11
2022-12-04T04:59:41.135Z,24.11
2022-12-04T05:00:11.265Z,24.11
2022-12-04T05:00:41.352Z,24.10
2022-12-04T05:01:11.624Z,24.10
2022-12-04T05:01:41.637Z,24.10
2022-12-04T05:02:11.809Z,24.11
2022-12-04T05:02:41.753Z,24.11
2022-12-04T05:03:11.792Z,24.11
2022-12-04T05:03:41.780Z,24.10
2022-12-04T05:04:11.893Z,24.10
2022-12-04T05:04:42.003Z,24.10
2022-12-04T05:05:12.152Z,24.10
2022-12-04T05:05:42.233Z,24.08
2022-12-04T05:06:12.345Z,24.11
2022-12-04T05:06:42.464Z,24.10
2022-12-04T05:07:12.568Z,24.11
2022-12-04T05:07:42.735Z,24.10
2022-12-04T05:08:12.763Z,24.10
2022-12-04T05:08:42.710Z,24.10
2022-12-04T05:09:12.687Z,24.10
2022-12-04T05:09:42.812Z,24.10
2022-12-04T05:10:12.937Z,24.10
2022-12-04T05:10:42.937Z,24.11
2022-12-04T05:11:12.929Z,24.07
2022-12-04T05:11:43.046Z,24.10
2022-12-04T05:12:13.152Z,24.08
2022-12-04T05:12:43.267Z,24.08
2022-12-04T05:13:13.377Z,24.12
2022-12-04T05:13:43.487Z,24.10
2022-12-04T05:14:13.616Z,24.08
2022-12-04T05:14:43.714Z,24.08
2022-12-04T05:15:13.704Z,24.10
2022-12-04T05:15:43.902Z,24.08
2022-12-04T05:16:14.024Z,24.07
2022-12-04T05:16:43.906Z,24.08
2022-12-04T05:17:14.014Z,24.10
2022-12-04T05:17:44.130Z,24.07
2022-12-04T05:18:14.240Z,24.11
2022-12-04T05:18:44.356Z,24.10
2022-12-04T05:19:14.459Z,24.11
2022-12-04T05:19:44.578Z,24.12
2022-12-04T05:20:14.594Z,24.12
2022-12-04T05:20:44.678Z,24.11
2022-12-04T05:21:14.792Z,24.15
2022-12-04T05:21:44.909Z,24.12
2022-12-04T05:22:15.016Z,24.15
2022-12-04T05:22:45.129Z,24.14
2022-12-04T05:23:15.253Z,24.15
2022-12-04T05:23:45.361Z,24.17
2022-12-04T05:24:15.355Z,24.15
2022-12-04T05:24:45.464Z,24.15
2022-12-04T05:25:15.579Z,24.17
2022-12-04T05:25:45.688Z,24.17
2022-12-04T05:26:15.796Z,24.18
2022-12-04T05:26:45.914Z,24.20
2022-12-04T05:27:16.023Z,24.18
2022-12-04T05:27:46.135Z,24.21
2022-12-04T05:28:16.249Z,24.20
2022-12-04T05:28:46.365Z,24.21
2022-12-04T05:29:16.351Z,24.22
2022-12-04T05:29:46.471Z,24.21
2022-12-04T05:30:16.477Z,24.21
2022-12-04T05:30:46.570Z,24.22
2022-12-04T05:31:16.767Z,24.22
2022-12-04T05:31:46.857Z,24.22
2022-12-04T05:32:16.828Z,24.20
2022-12-04T05:32:46.938Z,24.24
2022-12-04T05:33:17.057Z,24.24
2022-12-04T05:33:47.164Z,24.22
2022-12-04T05:34:17.277Z,24.22
2022-12-04T05:34:47.391Z,24.20
2022-12-04T05:35:17.526Z,24.21
2022-12-04T05:35:47.616Z,24.21
2022-12-04T05:36:17.725Z,24.21
2022-12-04T05:36:47.837Z,24.20
2022-12-04T05:37:17.952Z,24.20
2022-12-04T05:37:48.056Z,24.20
2022-12-04T05:38:18.171Z,24.20
2022-12-04T05:38:48.279Z,24.20
2022-12-04T05:39:18.393Z,24.18
2022-12-04T05:39:48.512Z,24.18
2022-12-04T05:40:18.622Z,24.17
2022-12-04T05:40:48.735Z,24.15
2022-12-04T05:41:18.849Z,24.15
2022-12-04T05:41:48.959Z,24.14
2022-12-04T05:42:19.074Z,24.15
2022-12-04T05:42:49.183Z,24.15
2022-12-04T05:43:19.296Z,24.12
2022-12-04T05:43:49.411Z,24.12
2022-12-04T05:44:19.480Z,24.11
2022-12-04T05:44:49.557Z,24.11
2022-12-04T05:45:19.654Z,24.12
2022-12-04T05:45:49.726Z,24.10
2022-12-04T05:46:19.846Z,24.08
2022-12-04T05:46:49.892Z,24.08
2022-12-04T05:47:19.840Z,24.08
2022-12-04T05:47:49.908Z,24.08
2022-12-04T05:48:19.982Z,24.08
2022-12-04T05:48:50.059Z,24.08
2022-12-04T05:49:20.131Z,24.10
2022-12-04T05:49:50.217Z,24.05
2022-12-04T05:50:20.289Z,24.04
2022-12-04T05:50:50.389Z,24.07
2022-12-04T05:51:20.443Z,24.05
2022-12-04T05:51:50.523Z,24.07
2022-12-04T05:52:20.589Z,24.05
2022-12-04T05:52:50.665Z,24.05
2022-12-04T05:53:20.738Z,24.07
2022-12-04T05:53:50.814Z,24.07
2022-12-04T05:54:20.923Z,24.05
2022-12-04T05:54:51.037Z,24.04
2022-12-04T05:55:21.151Z,24.04
2022-12-04T05:55:51.262Z,24.07
2022-12-04T05:56:21.382Z,24.04
2022-12-04T05:56:51.486Z,24.08
2022-12-04T05:57:25.244Z,24.05
2022-12-04T05:57:51.665Z,24.07
2022-12-04T05:58:21.776Z,24.07
2022-12-04T05:58:51.891Z,24.05
2022-12-04T05:59:22.002Z,24.07
2022-12-04T05:59:52.133Z,24.08
2022-12-04T06:00:22.115Z,24.05
2022-12-04T06:00:52.226Z,24.08
2022-12-04T06:01:22.335Z,24.08
2022-12-04T06:01:52.501Z,24.07
2022-12-04T06:02:22.541Z,24.07
2022-12-04T06:02:52.572Z,24.08
2022-12-04T06:03:22.724Z,24.07
2022-12-04T06:03:52.629Z,24.10
2022-12-04T06:04:22.736Z,24.07
2022-12-04T06:04:52.867Z,24.07
2022-12-04T06:05:22.853Z,24.05
2022-12-04T06:05:52.989Z,24.08
2022-12-04T06:06:23.081Z,24.08
2022-12-04T06:06:53.179Z,24.10
2022-12-04T06:07:23.292Z,24.08
2022-12-04T06:07:53.461Z,24.07
2022-12-04T06:08:23.450Z,24.10
2022-12-04T06:08:53.564Z,24.10
2022-12-04T06:09:23.673Z,24.08
2022-12-04T06:09:54.278Z,24.08
2022-12-04T06:10:23.871Z,24.08
2022-12-04T06:10:53.981Z,24.08
2022-12-04T06:11:24.096Z,24.08
2022-12-04T06:11:54.209Z,24.08
2022-12-04T06:12:24.324Z,24.10
2022-12-04T06:12:54.433Z,24.08
2022-12-04T06:13:24.546Z,24.08
2022-12-04T06:13:54.658Z,24.08
2022-12-04T06:14:24.772Z,24.10
2022-12-04T06:14:54.883Z,24.10
2022-12-04T06:15:25.003Z,24.07
2022-12-04T06:15:55.149Z,24.07
2022-12-04T06:16:25.363Z,24.10
2022-12-04T06:16:55.352Z,24.07
2022-12-04T06:17:25.340Z,24.08
2022-12-04T06:17:55.444Z,24.08
2022-12-04T06:18:25.562Z,24.10
2022-12-04T06:18:55.684Z,24.08
2022-12-04T06:19:25.783Z,24.07
2022-12-04T06:19:56.400Z,24.08
2022-12-04T06:20:26.035Z,24.08
2022-12-04T06:20:56.156Z,24.07
2022-12-04T06:21:26.116Z,24.07
2022-12-04T06:21:56.107Z,24.07
2022-12-04T06:22:26.214Z,24.08
2022-12-04T06:22:56.335Z,24.08
2022-12-04T06:23:26.466Z,24.07
2022-12-04T06:23:56.550Z,24.08
2022-12-04T06:24:26.668Z,24.10
2022-12-04T06:24:56.780Z,24.07
2022-12-04T06:25:26.893Z,24.07
2022-12-04T06:26:00.796Z,24.10
2022-12-04T06:26:27.024Z,24.08
2022-12-04T06:27:26.103Z,24.11
2022-12-04T06:27:28.274Z,24.10